createdAt,value
2022-12-28T00:00:43.076Z,5.50
2022-12-28T00:03:45.880Z,5.50
2022-12-28T00:06:50.471Z,5.18
2022-12-28T00:09:52.963Z,5.05
2022-12-28T00:12:55.204Z,4.90
2022-12-28T00:15:58.532Z,4.72
2022-12-28T00:19:05.951Z,5.07
2022-12-28T00:22:08.440Z,4.90
2022-12-28T00:25:10.653Z,4.50
2022-12-28T00:28:13.106Z,5.10
2022-12-28T00:31:16.216Z,4.72
2022-12-28T00:34:18.733Z,4.35
2022-12-28T00:37:20.877Z,4.47
2022-12-28T00:40:24.233Z,5.12
2022-12-28T00:43:27.313Z,4.55
2022-12-28T00:46:29.784Z,4.65
2022-12-28T00:49:31.952Z,4.18
2022-12-28T00:52:35.382Z,4.12
2022-12-28T00:55:37.921Z,4.50
2022-12-28T00:58:41.511Z,4.45
2022-12-28T01:01:43.743Z,4.28
2022-12-28T01:04:46.296Z,3.90
2022-12-28T07:26:56.011Z,5.12
2022-12-28T07:29:58.638Z,5.75
2022-12-28T07:33:00.957Z,4.60
2022-12-28T07:36:05.796Z,5.45
2022-12-28T07:39:08.338Z,5.47
2022-12-28T07:42:12.175Z,6.07
2022-12-28T07:45:14.640Z,6.15
2022-12-28T07:48:17.248Z,6.25
2022-12-28T07:51:29.226Z,5.82
2022-12-28T07:54:31.833Z,8.85
2022-12-28T07:57:34.425Z,9.07
2022-12-28T08:00:36.937Z,10.75
2022-12-28T08:03:42.800Z,9.38
2022-12-28T08:06:46.446Z,9.55
2022-12-28T08:09:49.161Z,10.70
2022-12-28T08:12:51.464Z,11.75
2022-12-28T08:15:57.049Z,11.02
2022-12-28T08:18:59.851Z,11.65
2022-12-28T08:22:02.406Z,11.88
2022-12-28T08:25:04.902Z,10.88
2022-12-28T08:28:07.427Z,10.93
2022-12-28T08:31:31.591Z,10.85
2022-12-28T08:34:34.100Z,10.60
2022-12-28T08:37:36.367Z,11.82
2022-12-28T08:40:38.858Z,10.73
2022-12-28T08:43:41.074Z,11.95
2022-12-28T08:46:43.600Z,12.23
2022-12-28T08:49:45.831Z,12.90
2022-12-28T08:52:48.543Z,12.60
2022-12-28T08:55:51.606Z,12.85
2022-12-28T08:58:56.040Z,12.90
2022-12-28T09:01:58.370Z,14.35
2022-12-28T09:05:00.883Z,13.32
2022-12-28T09:08:03.080Z,14.25
2022-12-28T09:11:09.408Z,13.10
2022-12-28T09:14:20.416Z,12.73
2022-12-28T09:17:26.256Z,13.45
2022-12-28T09:20:28.445Z,13.75
2022-12-28T09:23:31.253Z,13.23
2022-12-28T09:26:37.158Z,13.85
2022-12-28T09:29:39.642Z,13.93
2022-12-28T09:32:41.821Z,14.93
2022-12-28T09:35:44.296Z,13.25
2022-12-28T09:38:47.525Z,14.30
2022-12-28T09:42:09.209Z,13.57
2022-12-28T09:45:13.012Z,12.57
2022-12-28T09:48:20.408Z,12.05
2022-12-28T09:51:32.427Z,12.70
2022-12-28T09:54:34.872Z,11.82
2022-12-28T09:57:41.255Z,10.80
2022-12-28T10:00:56.754Z,11.73
2022-12-28T10:04:01.385Z,9.43
2022-12-28T10:07:03.581Z,11.10
2022-12-28T10:10:06.559Z,11.02
2022-12-28T10:16:48.956Z,11.18
2022-12-28T10:19:55.517Z,12.32
2022-12-28T10:22:59.416Z,12.93
2022-12-28T10:26:03.588Z,13.93
2022-12-28T10:29:13.407Z,12.93
2022-12-28T10:32:15.555Z,11.90
2022-12-28T10:35:33.429Z,12.05
2022-12-28T10:38:36.400Z,10.63
2022-12-28T10:41:40.728Z,11.45
2022-12-28T10:44:43.175Z,10.70
2022-12-28T10:47:54.319Z,10.27
2022-12-28T10:51:01.114Z,10.25
2022-12-28T10:54:27.862Z,10.52
2022-12-28T10:57:31.519Z,10.75
2022-12-28T11:00:34.279Z,10.50
2022-12-28T11:03:38.928Z,10.75
2022-12-28T11:07:00.770Z,11.73
2022-12-28T11:10:22.543Z,10.60
2022-12-28T11:13:27.263Z,10.48
2022-12-28T11:16:33.261Z,10.18
2022-12-28T11:19:35.993Z,8.40
2022-12-28T11:22:38.310Z,7.22
2022-12-28T11:25:41.288Z,7.22
2022-12-28T11:28:46.007Z,6.97
2022-12-28T11:31:58.026Z,6.82
2022-12-28T11:35:01.290Z,5.82
2022-12-28T11:38:05.516Z,6.35
2022-12-28T11:41:36.968Z,5.95
2022-12-28T11:44:39.335Z,6.45
2022-12-28T11:47:41.621Z,6.68
2022-12-28T11:50:52.223Z,5.95
2022-12-28T11:54:00.057Z,7.55
2022-12-28T11:57:02.831Z,8.20
2022-12-28T12:00:21.943Z,7.32
2022-12-28T12:03:59.488Z,7.80
2022-12-28T12:07:01.727Z,7.00
2022-12-28T12:10:34.268Z,7.75
2022-12-28T12:13:48.968Z,9.05
2022-12-28T12:16:58.872Z,7.18
2022-12-28T12:20:07.111Z,6.47
2022-12-28T12:23:19.197Z,6.72
2022-12-28T12:26:33.372Z,6.70
2022-12-28T12:29:50.978Z,6.78
2022-12-28T12:33:00.103Z,6.62
2022-12-28T12:36:40.153Z,6.55
2022-12-28T12:40:10.435Z,7.35
2022-12-28T12:43:31.647Z,7.45
2022-12-28T12:47:05.270Z,6.05
2022-12-28T12:50:28.734Z,6.30
2022-12-28T12:53:36.659Z,6.30
2022-12-28T12:57:30.333Z,6.57
2022-12-28T13:00:53.652Z,7.78
2022-12-28T13:04:05.841Z,7.62
2022-12-28T13:07:26.812Z,8.80
2022-12-28T13:10:34.667Z,8.38
2022-12-28T13:13:40.043Z,8.52
2022-12-28T13:16:57.147Z,9.18
2022-12-28T13:20:17.376Z,9.35
2022-12-28T13:23:22.404Z,8.75
2022-12-28T13:26:29.272Z,8.93
2022-12-28T13:29:38.484Z,8.88
2022-12-28T13:32:51.196Z,8.50
2022-12-28T13:36:14.584Z,6.75
2022-12-28T13:39:18.727Z,6.45
2022-12-28T13:42:33.956Z,6.65
2022-12-28T13:45:36.173Z,5.78
2022-12-28T13:48:45.100Z,5.20
2022-12-28T13:51:53.149Z,5.62
2022-12-28T13:55:00.199Z,5.87
2022-12-28T13:58:08.366Z,4.47
2022-12-28T14:01:19.060Z,4.85
2022-12-28T14:04:51.787Z,4.55
2022-12-28T14:07:51.449Z,5.35
2022-12-28T14:10:55.235Z,5.18
2022-12-28T14:13:57.791Z,5.45
2022-12-28T14:17:02.814Z,5.20
2022-12-28T14:20:05.781Z,5.12
2022-12-28T14:23:25.065Z,4.72
2022-12-28T14:26:28.384Z,5.30
2022-12-28T14:29:33.903Z,5.12
2022-12-28T14:32:42.348Z,5.60
2022-12-28T14:38:52.820Z,5.57
2022-12-28T14:41:55.727Z,4.93
2022-12-28T14:44:59.078Z,5.45
2022-12-28T14:48:01.776Z,5.47
2022-12-28T14:51:11.441Z,5.78
2022-12-28T14:54:20.104Z,5.00
2022-12-28T14:57:40.117Z,5.07
2022-12-28T15:00:58.553Z,5.15
2022-12-28T15:04:03.690Z,4.75
2022-12-28T15:07:08.722Z,6.10
2022-12-28T15:10:10.923Z,6.60
2022-12-28T15:13:14.298Z,8.32
2022-12-28T15:16:18.555Z,6.37
2022-12-28T15:19:21.080Z,6.85
2022-12-28T15:22:23.372Z,6.93
2022-12-28T15:25:26.111Z,6.93
2022-12-28T15:28:28.523Z,5.93
2022-12-28T15:31:31.406Z,7.40
2022-12-28T15:34:34.023Z,6.68
2022-12-28T15:37:36.752Z,7.03
2022-12-28T15:40:39.898Z,6.93
2022-12-28T15:43:42.370Z,6.12
2022-12-28T15:46:45.528Z,7.20
2022-12-28T15:49:48.100Z,7.55
2022-12-28T15:52:50.323Z,8.52
2022-12-28T15:56:00.549Z,17.20
2022-12-28T15:59:05.729Z,12.40
2022-12-28T16:02:10.997Z,8.50
2022-12-28T16:05:13.726Z,7.47
2022-12-28T16:08:15.815Z,7.05
2022-12-28T16:11:19.930Z,7.15
2022-12-28T16:14:22.541Z,7.37
2022-12-28T16:17:24.986Z,6.80
2022-12-28T16:20:27.170Z,6.35
2022-12-28T16:23:32.026Z,6.05
2022-12-28T16:26:34.335Z,6.43
2022-12-28T16:29:36.761Z,6.22
2022-12-28T16:32:38.917Z,6.07
2022-12-28T16:35:41.540Z,5.68
2022-12-28T16:38:43.630Z,5.70
2022-12-28T16:41:46.080Z,6.62
2022-12-28T16:44:48.211Z,6.05
2022-12-28T16:47:50.634Z,5.93
2022-12-28T16:51:00.735Z,5.95
2022-12-28T16:54:03.340Z,5.65
2022-12-28T16:57:05.547Z,7.18
2022-12-28T17:00:08.598Z,7.10
2022-12-28T17:03:11.316Z,7.10
2022-12-28T17:06:14.364Z,6.87
2022-12-28T17:09:17.477Z,8.40
2022-12-28T17:12:19.964Z,8.57
2022-12-28T17:15:22.144Z,8.00
2022-12-28T17:18:24.597Z,8.93
2022-12-28T17:21:28.435Z,7.97
2022-12-28T17:24:31.211Z,8.60
2022-12-28T17:27:33.839Z,7.60
2022-12-28T17:30:36.312Z,7.65
2022-12-28T17:33:40.012Z,9.00
2022-12-28T17:36:42.862Z,8.98
2022-12-28T17:39:45.129Z,8.55
2022-12-28T17:42:47.700Z,8.05
2022-12-28T17:45:49.887Z,7.97
2022-12-28T17:48:53.860Z,7.03
2022-12-28T17:51:56.038Z,7.50
2022-12-28T17:54:58.506Z,6.68
2022-12-28T17:58:00.716Z,6.82
2022-12-28T18:01:03.976Z,6.80
2022-12-28T18:04:06.603Z,7.82
2022-12-28T18:07:08.988Z,7.10
2022-12-28T18:10:11.465Z,7.82
2022-12-28T18:13:14.408Z,8.43
2022-12-28T18:16:19.725Z,7.57
2022-12-28T18:19:22.128Z,8.05
2022-12-28T18:22:24.675Z,6.78
2022-12-28T18:25:26.872Z,8.52
2022-12-28T18:28:29.792Z,7.93
2022-12-28T18:31:31.984Z,8.25
2022-12-28T18:34:34.479Z,7.32
2022-12-28T18:37:36.626Z,9.05
2022-12-28T18:40:39.088Z,9.05
2022-12-28T18:43:41.709Z,9.65
2022-12-28T18:46:44.267Z,8.27
2022-12-28T18:49:48.179Z,9.00
2022-12-28T18:52:50.705Z,7.53
2022-12-28T18:56:00.566Z,8.57
2022-12-28T18:59:03.143Z,9.00
2022-12-28T19:02:07.436Z,8.35
2022-12-28T19:05:10.868Z,9.00
2022-12-28T19:08:12.973Z,8.55
2022-12-28T19:11:15.437Z,8.80
2022-12-28T19:14:17.582Z,8.18
2022-12-28T19:17:20.023Z,9.15
2022-12-28T19:20:22.166Z,8.35
2022-12-28T19:23:24.867Z,7.78
2022-12-28T19:26:27.096Z,7.45
2022-12-28T19:29:31.264Z,7.97
2022-12-28T19:32:33.439Z,7.60
2022-12-28T19:35:35.921Z,8.38
2022-12-28T19:38:38.440Z,7.87
2022-12-28T19:41:40.991Z,7.45
2022-12-28T19:44:43.209Z,7.87
2022-12-28T19:47:45.637Z,7.97
2022-12-28T19:50:50.707Z,7.35
2022-12-28T19:53:54.237Z,7.30
2022-12-28T19:56:56.386Z,8.40
2022-12-28T19:59:59.047Z,8.45
2022-12-28T20:03:01.385Z,8.02
2022-12-28T20:06:21.823Z,7.30
2022-12-28T20:09:24.063Z,7.43
2022-12-28T20:12:26.461Z,7.10
2022-12-28T20:15:28.749Z,6.60
2022-12-28T20:18:31.429Z,7.15
2022-12-28T20:21:34.474Z,7.62
2022-12-28T20:24:36.947Z,7.03
2022-12-28T20:27:39.097Z,7.90
2022-12-28T20:30:41.523Z,6.85
2022-12-28T20:33:44.172Z,7.22
2022-12-28T20:36:46.615Z,7.78
2022-12-28T20:39:48.779Z,7.87
2022-12-28T20:43:10.001Z,7.55
2022-12-28T20:46:13.608Z,7.12
2022-12-28T20:49:16.104Z,7.07
2022-12-28T20:52:18.229Z,7.55
2022-12-28T20:55:21.421Z,7.43
2022-12-28T20:58:25.096Z,7.65
2022-12-28T21:01:27.662Z,7.85
2022-12-28T21:04:29.901Z,7.78
2022-12-28T21:07:32.529Z,8.05
2022-12-28T21:10:34.827Z,7.45
2022-12-28T21:13:43.749Z,8.02
2022-12-28T21:16:47.083Z,7.82
2022-12-28T21:19:49.648Z,7.00
2022-12-28T21:22:51.979Z,7.60
2022-12-28T21:26:05.429Z,8.65
2022-12-28T21:29:07.626Z,9.02
2022-12-28T21:32:10.137Z,8.68
2022-12-28T21:35:12.263Z,8.85
2022-12-28T21:38:14.722Z,7.82
2022-12-28T21:41:41.685Z,9.18
2022-12-28T21:44:44.249Z,8.65
2022-12-28T21:47:46.463Z,8.38
2022-12-28T21:50:48.895Z,8.40
2022-12-28T21:53:51.125Z,7.72
2022-12-28T21:56:55.909Z,8.77
2022-12-28T21:59:59.559Z,10.18
2022-12-28T22:03:24.966Z,9.13
2022-12-28T22:06:27.525Z,8.45
2022-12-28T22:09:48.723Z,7.78
2022-12-28T22:12:51.167Z,7.80
2022-12-28T22:15:53.259Z,9.15
2022-12-28T22:19:03.615Z,9.25
2022-12-28T22:22:06.344Z,8.38
2022-12-28T22:25:11.049Z,8.35
2022-12-28T22:28:13.458Z,9.80
2022-12-28T22:31:16.047Z,9.48
2022-12-28T22:34:18.554Z,10.77
2022-12-28T22:37:21.107Z,10.43
2022-12-28T22:40:23.285Z,9.73
2022-12-28T22:43:25.894Z,9.70
2022-12-28T22:46:28.125Z,10.93
2022-12-28T22:49:30.885Z,10.65
2022-12-28T22:52:33.146Z,10.05
2022-12-28T22:55:35.665Z,10.57
2022-12-28T22:58:38.123Z,10.38
2022-12-28T23:01:40.687Z,10.02
2022-12-28T23:04:43.444Z,9.63
2022-12-28T23:07:46.497Z,10.05
2022-12-28T23:10:59.842Z,11.68
2022-12-28T23:14:42.915Z,11.77
2022-12-28T23:17:46.811Z,10.50
2022-12-28T23:21:07.942Z,12.02
2022-12-28T23:24:32.988Z,10.80
2022-12-28T23:27:39.472Z,10.85
2022-12-28T23:30:45.381Z,11.77
2022-12-28T23:33:47.918Z,10.63
2022-12-28T23:36:50.143Z,11.32
2022-12-28T23:39:52.574Z,10.30
2022-12-28T23:42:54.758Z,10.70
2022-12-28T23:45:57.270Z,11.35
2022-12-28T23:48:59.432Z,10.93
2022-12-28T23:52:01.973Z,11.00
2022-12-28T23:55:04.685Z,10.20
2022-12-28T23:58:07.193Z,11.20
